createdAt,value
2023-02-16T00:02:50.781Z,7.53
2023-02-16T00:05:54.511Z,7.29
2023-02-16T00:08:59.848Z,7.44
2023-02-16T00:12:20.847Z,7.50
2023-02-16T00:15:24.744Z,7.05
2023-02-16T00:18:28.372Z,7.21
2023-02-16T00:21:32.648Z,7.16
2023-02-16T00:24:38.115Z,6.95
2023-02-16T00:27:41.767Z,6.98
2023-02-16T00:30:45.519Z,6.97
2023-02-16T00:33:51.051Z,7.09
2023-02-16T00:36:58.295Z,7.03
2023-02-16T00:40:04.143Z,7.08
2023-02-16T00:43:09.029Z,7.06
2023-02-16T00:46:14.859Z,6.94
2023-02-16T00:49:19.785Z,6.85
2023-02-16T00:52:36.269Z,6.85
2023-02-16T00:55:43.084Z,6.69
2023-02-16T00:58:47.180Z,6.54
2023-02-16T01:01:51.613Z,6.69
2023-02-16T01:04:55.568Z,6.85
2023-02-16T01:08:17.073Z,6.88
2023-02-16T01:11:24.239Z,6.85
2023-02-16T01:14:28.216Z,6.92
2023-02-16T01:17:32.030Z,6.74
2023-02-16T01:20:36.794Z,6.71
2023-02-16T01:23:40.509Z,6.46
2023-02-16T01:26:49.112Z,6.11
2023-02-16T01:29:52.727Z,5.91
2023-02-16T01:32:56.807Z,5.82
2023-02-16T01:36:00.704Z,5.96
2023-02-16T01:39:05.476Z,6.05
2023-02-16T01:42:31.195Z,6.06
2023-02-16T01:45:39.427Z,6.07
2023-02-16T01:48:43.248Z,5.98
2023-02-16T01:51:54.670Z,6.17
2023-02-16T01:55:06.780Z,6.05
2023-02-16T01:58:16.717Z,6.24
2023-02-16T02:01:54.621Z,6.07
2023-02-16T02:05:19.407Z,6.43
2023-02-16T02:08:30.897Z,6.46
2023-02-16T02:11:38.749Z,6.48
2023-02-16T02:14:44.444Z,6.64
2023-02-16T02:17:49.853Z,6.72
2023-02-16T02:21:24.313Z,6.65
2023-02-16T02:25:05.592Z,6.56
2023-02-16T02:28:17.124Z,6.55
2023-02-16T02:31:31.684Z,6.25
2023-02-16T02:34:48.708Z,6.38
2023-02-16T02:38:00.169Z,6.35
2023-02-16T02:41:15.122Z,6.17
2023-02-16T02:44:24.173Z,6.32
2023-02-16T02:47:40.043Z,6.12
2023-02-16T02:51:11.996Z,6.16
2023-02-16T02:54:38.042Z,5.88
2023-02-16T02:58:15.389Z,6.04
2023-02-16T03:01:23.372Z,6.29
2023-02-16T03:04:32.378Z,6.05
2023-02-16T03:07:48.194Z,6.08
2023-02-16T03:11:13.080Z,6.17
2023-02-16T03:14:20.612Z,6.36
2023-02-16T03:17:50.497Z,6.41
2023-02-16T03:21:11.902Z,6.46
2023-02-16T03:24:38.030Z,6.31
2023-02-16T03:28:01.855Z,6.07
2023-02-16T03:31:07.976Z,5.50
2023-02-16T03:34:13.800Z,5.89
2023-02-16T03:37:17.901Z,5.97
2023-02-16T03:40:33.516Z,6.12
2023-02-16T03:43:37.090Z,6.17
2023-02-16T03:46:40.738Z,6.16
2023-02-16T03:49:45.855Z,6.29
2023-02-16T03:52:49.993Z,6.25
2023-02-16T03:55:53.663Z,6.17
2023-02-16T03:58:57.441Z,6.33
2023-02-16T04:02:01.463Z,6.12
2023-02-16T04:05:07.315Z,6.36
2023-02-16T04:08:11.774Z,6.38
2023-02-16T04:11:32.440Z,6.27
2023-02-16T04:14:36.141Z,6.14
2023-02-16T04:17:39.801Z,5.90
2023-02-16T04:20:45.392Z,6.08
2023-02-16T04:23:48.967Z,5.95
2023-02-16T04:26:52.791Z,5.82
2023-02-16T04:29:56.535Z,6.03
2023-02-16T04:33:00.191Z,6.02
2023-02-16T04:36:05.608Z,6.10
2023-02-16T04:39:09.293Z,5.78
2023-02-16T04:42:12.941Z,5.86
2023-02-16T04:45:16.519Z,5.93
2023-02-16T04:48:20.196Z,5.83
2023-02-16T04:51:25.642Z,5.65
2023-02-16T04:54:29.295Z,5.81
2023-02-16T04:57:32.874Z,5.50
2023-02-16T05:00:37.552Z,5.62
2023-02-16T05:03:41.187Z,5.85
2023-02-16T05:06:46.488Z,5.81
2023-02-16T05:09:50.219Z,5.90
2023-02-16T05:13:11.132Z,5.95
2023-02-16T05:16:14.988Z,5.78
2023-02-16T05:19:18.787Z,5.96
2023-02-16T05:22:24.366Z,6.02
2023-02-16T05:25:28.116Z,5.91
2023-02-16T05:28:31.915Z,6.08
2023-02-16T05:31:35.948Z,5.91
2023-02-16T05:34:39.768Z,5.87
2023-02-16T05:37:45.038Z,5.57
2023-02-16T05:40:49.261Z,5.89
2023-02-16T05:43:54.489Z,5.91
2023-02-16T05:46:58.263Z,5.91
2023-02-16T05:50:01.872Z,5.98
2023-02-16T05:53:07.140Z,6.09
2023-02-16T05:56:11.425Z,5.48
2023-02-16T05:59:16.253Z,5.54
2023-02-16T06:02:20.091Z,5.48
2023-02-16T06:05:23.864Z,5.71
2023-02-16T06:08:29.606Z,6.15
2023-02-16T06:11:39.222Z,6.60
2023-02-16T06:14:42.994Z,6.68
2023-02-16T06:17:46.712Z,7.01
2023-02-16T06:20:50.935Z,7.15
2023-02-16T06:23:56.224Z,7.34
2023-02-16T06:27:00.057Z,7.59
2023-02-16T06:30:04.554Z,7.67
2023-02-16T06:33:08.463Z,8.07
2023-02-16T06:36:13.203Z,8.36
2023-02-16T06:39:18.443Z,8.40
2023-02-16T06:42:22.242Z,8.63
2023-02-16T06:45:25.940Z,8.69
2023-02-16T06:48:29.801Z,8.96
2023-02-16T06:51:33.704Z,9.24
2023-02-16T06:54:38.900Z,9.07
2023-02-16T06:57:42.695Z,9.11
2023-02-16T07:00:46.667Z,9.29
2023-02-16T07:03:51.927Z,9.68
2023-02-16T07:06:55.845Z,10.00
2023-02-16T07:10:02.921Z,10.25
2023-02-16T07:13:06.683Z,10.33
2023-02-16T07:16:11.237Z,10.18
2023-02-16T07:19:15.031Z,10.64
2023-02-16T07:22:22.861Z,10.89
2023-02-16T07:25:30.241Z,10.69
2023-02-16T07:28:34.381Z,10.91
2023-02-16T07:31:38.191Z,10.96
2023-02-16T07:34:42.071Z,10.61
2023-02-16T07:37:45.927Z,10.74
2023-02-16T07:40:51.042Z,10.98
2023-02-16T07:43:55.020Z,11.20
2023-02-16T07:46:58.777Z,11.29
2023-02-16T07:50:02.752Z,11.45
2023-02-16T07:53:06.683Z,11.72
2023-02-16T07:56:20.973Z,12.02
2023-02-16T07:59:24.767Z,12.40
2023-02-16T08:02:28.805Z,12.08
2023-02-16T08:05:32.699Z,12.05
2023-02-16T08:08:37.144Z,12.37
2023-02-16T08:11:42.867Z,12.84
2023-02-16T08:14:48.108Z,12.51
2023-02-16T08:17:51.931Z,12.65
2023-02-16T08:21:04.214Z,12.25
2023-02-16T08:24:09.812Z,11.76
2023-02-16T08:27:15.134Z,12.49
2023-02-16T08:30:20.802Z,12.75
2023-02-16T08:33:25.923Z,12.77
2023-02-16T08:36:32.680Z,13.02
2023-02-16T08:39:37.407Z,13.17
2023-02-16T08:42:42.751Z,11.88
2023-02-16T08:45:47.867Z,12.95
2023-02-16T08:48:51.752Z,13.44
2023-02-16T08:51:57.632Z,13.69
2023-02-16T08:55:01.428Z,13.89
2023-02-16T08:58:06.783Z,14.09
2023-02-16T09:01:13.286Z,14.34
2023-02-16T09:04:18.079Z,14.33
2023-02-16T09:07:22.506Z,14.56
2023-02-16T09:10:26.273Z,14.65
2023-02-16T09:13:31.574Z,14.95
2023-02-16T09:16:38.695Z,14.88
2023-02-16T09:19:43.819Z,15.30
2023-02-16T09:22:48.790Z,15.31
2023-02-16T09:25:52.529Z,15.39
2023-02-16T09:28:59.103Z,15.23
2023-02-16T09:32:03.250Z,15.57
2023-02-16T09:35:07.963Z,16.04
2023-02-16T09:38:11.731Z,15.91
2023-02-16T09:41:26.585Z,16.14
2023-02-16T09:44:40.040Z,16.27
2023-02-16T09:47:48.173Z,16.00
2023-02-16T09:50:55.458Z,16.00
2023-02-16T09:54:04.117Z,15.99
2023-02-16T09:57:17.952Z,16.36
2023-02-16T10:00:36.012Z,16.23
2023-02-16T10:03:56.646Z,16.48
2023-02-16T10:07:11.063Z,16.05
2023-02-16T10:10:20.433Z,16.60
2023-02-16T10:13:34.083Z,16.70
2023-02-16T10:16:44.195Z,15.99
2023-02-16T10:19:54.905Z,16.62
2023-02-16T10:23:06.735Z,16.73
2023-02-16T10:26:19.216Z,16.31
2023-02-16T10:29:24.448Z,16.59
2023-02-16T10:32:37.301Z,16.84
2023-02-16T10:35:47.986Z,16.33
2023-02-16T10:38:59.297Z,16.10
2023-02-16T10:42:10.122Z,16.74
2023-02-16T10:45:27.205Z,17.07
2023-02-16T10:48:33.624Z,16.98
2023-02-16T10:51:40.762Z,17.01
2023-02-16T10:54:44.620Z,16.74
2023-02-16T10:57:56.266Z,16.20
2023-02-16T11:01:08.681Z,16.38
2023-02-16T11:04:31.896Z,16.78
2023-02-16T11:07:35.689Z,16.87
2023-02-16T11:10:42.886Z,16.61
2023-02-16T11:13:50.260Z,17.11
2023-02-16T11:17:05.803Z,17.53
2023-02-16T11:20:31.349Z,17.74
2023-02-16T11:23:36.372Z,17.28
2023-02-16T11:26:40.212Z,17.72
2023-02-16T11:29:43.979Z,17.82
2023-02-16T11:32:47.829Z,17.52
2023-02-16T11:35:53.306Z,16.74
2023-02-16T11:38:59.739Z,17.09
2023-02-16T11:42:06.574Z,17.05
2023-02-16T11:45:22.974Z,16.62
2023-02-16T11:48:29.450Z,16.86
2023-02-16T11:51:36.740Z,16.98
2023-02-16T11:54:50.566Z,17.35
2023-02-16T11:57:56.652Z,17.42
2023-02-16T12:01:11.251Z,17.47
2023-02-16T12:04:29.457Z,17.18
2023-02-16T12:07:42.454Z,16.93
2023-02-16T12:11:03.409Z,17.21
2023-02-16T12:14:24.562Z,16.78
2023-02-16T12:17:49.501Z,16.89
2023-02-16T12:21:00.366Z,17.07
2023-02-16T12:24:18.171Z,17.38
2023-02-16T12:27:27.552Z,17.33
2023-02-16T12:30:42.304Z,16.87
2023-02-16T12:33:53.431Z,16.42
2023-02-16T12:37:05.909Z,16.61
2023-02-16T12:40:25.821Z,16.34
2023-02-16T12:43:39.249Z,16.72
2023-02-16T12:46:44.973Z,16.75
2023-02-16T12:49:55.263Z,17.16
2023-02-16T12:53:04.169Z,17.23
2023-02-16T12:56:14.267Z,17.33
2023-02-16T12:59:24.016Z,16.80
2023-02-16T13:02:33.587Z,16.61
2023-02-16T13:05:39.611Z,16.46
2023-02-16T13:08:49.979Z,16.85
2023-02-16T13:12:02.451Z,16.84
2023-02-16T13:15:14.708Z,17.25
2023-02-16T13:18:23.166Z,17.13
2023-02-16T13:25:29.424Z,16.58
2023-02-16T13:29:15.028Z,16.34
2023-02-16T13:32:43.718Z,16.53
2023-02-16T13:36:13.133Z,16.44
2023-02-16T13:39:36.066Z,15.97
2023-02-16T13:43:02.729Z,15.61
2023-02-16T13:46:14.599Z,16.10
2023-02-16T13:49:32.830Z,16.61
2023-02-16T13:52:39.399Z,16.65
2023-02-16T13:55:43.260Z,16.84
2023-02-16T13:58:47.046Z,16.78
2023-02-16T14:01:55.362Z,16.85
2023-02-16T14:05:05.879Z,16.33
2023-02-16T14:08:19.117Z,16.39
2023-02-16T14:11:22.946Z,16.09
2023-02-16T14:14:31.667Z,16.03
2023-02-16T14:17:37.195Z,16.33
2023-02-16T14:20:40.994Z,16.42
2023-02-16T14:23:46.564Z,16.38
2023-02-16T14:26:56.481Z,16.30
2023-02-16T14:30:02.967Z,16.29
2023-02-16T14:33:22.696Z,16.15
2023-02-16T14:36:27.914Z,15.59
2023-02-16T14:39:31.837Z,15.65
2023-02-16T14:42:37.656Z,15.70
2023-02-16T14:45:57.988Z,15.68
2023-02-16T14:49:39.985Z,15.57
2023-02-16T14:53:16.475Z,15.44
2023-02-16T14:56:40.743Z,15.33
2023-02-16T14:59:50.465Z,15.22
2023-02-16T15:03:00.536Z,15.30
2023-02-16T15:06:07.523Z,15.16
2023-02-16T15:09:19.796Z,14.99
2023-02-16T15:12:28.469Z,15.03
2023-02-16T15:15:44.994Z,14.80
2023-02-16T15:18:52.358Z,14.53
2023-02-16T15:22:10.594Z,14.24
2023-02-16T15:25:38.706Z,14.00
2023-02-16T15:28:43.903Z,13.91
2023-02-16T15:31:48.375Z,13.84
2023-02-16T15:34:52.254Z,13.79
2023-02-16T15:38:08.247Z,13.80
2023-02-16T15:41:16.364Z,13.72
2023-02-16T15:44:32.863Z,13.68
2023-02-16T15:47:36.663Z,13.56
2023-02-16T15:50:40.872Z,13.57
2023-02-16T15:53:51.836Z,13.47
2023-02-16T15:56:58.550Z,13.57
2023-02-16T16:00:07.538Z,13.58
2023-02-16T16:03:18.572Z,13.44
2023-02-16T16:06:22.301Z,13.43
2023-02-16T16:09:28.708Z,13.38
2023-02-16T16:12:34.188Z,13.36
2023-02-16T16:15:42.805Z,13.37
2023-02-16T16:18:49.981Z,13.21
2023-02-16T16:21:55.926Z,13.06
2023-02-16T16:24:59.689Z,12.98
2023-02-16T16:28:06.727Z,12.98
2023-02-16T16:31:13.854Z,13.09
2023-02-16T16:34:34.361Z,13.11
2023-02-16T16:37:38.487Z,12.99
2023-02-16T16:40:42.282Z,12.93
2023-02-16T16:43:55.819Z,12.86
2023-02-16T16:47:12.505Z,12.80
2023-02-16T16:50:39.637Z,12.67
2023-02-16T16:53:52.282Z,12.70
2023-02-16T16:56:56.067Z,12.63
2023-02-16T17:00:01.309Z,12.67
2023-02-16T17:03:07.642Z,12.53
2023-02-16T17:06:11.818Z,12.56
2023-02-16T17:09:16.981Z,12.42
2023-02-16T17:12:22.060Z,12.41
2023-02-16T17:15:35.880Z,12.25
2023-02-16T17:18:39.915Z,12.24
2023-02-16T17:21:44.160Z,12.20
2023-02-16T17:24:48.558Z,12.29
2023-02-16T17:27:52.451Z,12.14
2023-02-16T17:30:57.662Z,12.07
2023-02-16T17:34:02.032Z,11.95
2023-02-16T17:37:08.149Z,12.06
2023-02-16T17:40:17.547Z,11.91
2023-02-16T17:43:22.930Z,11.84
2023-02-16T17:46:28.888Z,11.81
2023-02-16T17:49:32.708Z,11.82
2023-02-16T17:52:37.444Z,11.84
2023-02-16T17:55:41.252Z,11.89
2023-02-16T17:58:45.580Z,11.93
2023-02-16T18:01:50.942Z,11.90
2023-02-16T18:04:56.310Z,11.66
2023-02-16T18:08:00.137Z,11.72
2023-02-16T18:11:04.165Z,11.68
2023-02-16T18:14:07.907Z,11.51
2023-02-16T18:17:14.642Z,11.40
2023-02-16T18:20:18.856Z,11.44
2023-02-16T18:23:22.792Z,11.39
2023-02-16T18:26:28.738Z,11.44
2023-02-16T18:29:32.703Z,11.34
2023-02-16T18:32:38.026Z,11.42
2023-02-16T18:35:41.900Z,11.44
2023-02-16T18:38:45.640Z,11.51
2023-02-16T18:41:49.475Z,11.51
2023-02-16T18:44:53.314Z,11.21
2023-02-16T18:47:58.608Z,11.16
2023-02-16T18:51:05.675Z,11.02
2023-02-16T18:54:09.475Z,10.89
2023-02-16T18:57:13.405Z,11.12
2023-02-16T19:00:18.688Z,11.24
2023-02-16T19:03:23.924Z,11.06
2023-02-16T19:06:28.425Z,10.87
2023-02-16T19:09:32.189Z,10.92
2023-02-16T19:12:36.106Z,10.69
2023-02-16T19:15:39.971Z,10.79
2023-02-16T19:18:45.221Z,10.85
2023-02-16T19:21:48.955Z,10.73
2023-02-16T19:24:52.737Z,10.72
2023-02-16T19:27:56.611Z,10.69
2023-02-16T19:31:02.865Z,10.62
2023-02-16T19:34:08.307Z,10.28
2023-02-16T19:37:12.065Z,10.37
2023-02-16T19:40:17.171Z,10.34
2023-02-16T19:43:21.473Z,10.30
2023-02-16T19:46:26.052Z,10.11
2023-02-16T19:49:31.390Z,10.07
2023-02-16T19:52:35.240Z,10.26
2023-02-16T19:55:42.151Z,10.17
2023-02-16T19:58:45.939Z,10.43
2023-02-16T20:01:49.847Z,10.42
2023-02-16T20:04:55.419Z,10.30
2023-02-16T20:07:59.229Z,10.30
2023-02-16T20:11:06.583Z,10.32
2023-02-16T20:14:11.274Z,10.31
2023-02-16T20:17:14.992Z,10.26
2023-02-16T20:20:20.398Z,10.27
2023-02-16T20:23:24.182Z,10.27
2023-02-16T20:26:31.836Z,10.19
2023-02-16T20:29:36.841Z,10.12
2023-02-16T20:32:41.225Z,9.87
2023-02-16T20:35:46.437Z,9.90
2023-02-16T20:38:51.551Z,9.61
2023-02-16T20:41:55.443Z,9.39
2023-02-16T20:44:59.110Z,9.44
2023-02-16T20:48:04.339Z,9.11
2023-02-16T20:51:09.965Z,9.09
2023-02-16T20:54:14.004Z,9.09
2023-02-16T20:57:26.413Z,9.00
2023-02-16T21:00:31.284Z,9.04
2023-02-16T21:03:35.058Z,8.95
2023-02-16T21:06:40.634Z,9.04
2023-02-16T21:09:44.307Z,9.03
2023-02-16T21:12:48.083Z,8.87
2023-02-16T21:15:51.928Z,8.76
2023-02-16T21:18:56.312Z,8.68
2023-02-16T21:22:01.587Z,8.61
2023-02-16T21:25:05.808Z,8.04
2023-02-16T21:28:09.704Z,8.13
2023-02-16T21:31:15.292Z,8.25
2023-02-16T21:34:19.112Z,8.05
2023-02-16T21:37:24.411Z,8.22
2023-02-16T21:40:45.430Z,8.26
2023-02-16T21:43:49.210Z,7.99
2023-02-16T21:46:52.973Z,8.12
2023-02-16T21:49:55.593Z,8.30
2023-02-16T21:53:00.979Z,8.41
2023-02-16T21:56:18.310Z,8.34
2023-02-16T21:59:22.934Z,8.34
2023-02-16T22:02:26.873Z,8.46
2023-02-16T22:05:30.740Z,8.10
2023-02-16T22:08:38.473Z,7.70
2023-02-16T22:11:42.873Z,8.11
2023-02-16T22:14:46.598Z,7.97
2023-02-16T22:17:50.579Z,8.07
2023-02-16T22:20:54.289Z,7.91
2023-02-16T22:24:00.976Z,8.23
2023-02-16T22:27:04.796Z,8.06
2023-02-16T22:30:09.852Z,7.93
2023-02-16T22:33:13.629Z,8.03
2023-02-16T22:36:17.324Z,8.11
2023-02-16T22:39:22.703Z,8.23
2023-02-16T22:42:26.562Z,7.87
2023-02-16T22:45:30.883Z,8.14
2023-02-16T22:48:34.818Z,7.98
2023-02-16T22:51:38.837Z,7.86
2023-02-16T22:54:44.205Z,7.42
2023-02-16T22:57:47.947Z,7.55
2023-02-16T23:00:52.361Z,7.61
2023-02-16T23:03:58.720Z,7.81
2023-02-16T23:07:02.556Z,7.69
2023-02-16T23:10:09.279Z,7.72
2023-02-16T23:13:13.149Z,7.78
2023-02-16T23:16:20.123Z,7.72
2023-02-16T23:19:26.623Z,7.42
2023-02-16T23:22:31.409Z,7.50
2023-02-16T23:25:36.585Z,7.55
2023-02-16T23:28:42.479Z,7.51
2023-02-16T23:34:52.168Z,7.57
2023-02-16T23:37:55.951Z,7.53
2023-02-16T23:41:03.275Z,7.53
2023-02-16T23:44:08.223Z,7.57
2023-02-16T23:47:11.940Z,7.55
2023-02-16T23:50:15.804Z,7.58
2023-02-16T23:53:20.405Z,7.09
2023-02-16T23:56:27.716Z,6.94
2023-02-16T23:59:31.823Z,7.30
